createdAt,value
2023-05-12T00:02:06.937Z,12.47
2023-05-12T00:05:09.526Z,12.51
2023-05-12T00:08:11.889Z,12.52
2023-05-12T00:11:14.656Z,12.65
2023-05-12T00:14:17.321Z,12.62
2023-05-12T00:17:19.721Z,12.64
2023-05-12T00:20:22.822Z,12.65
2023-05-12T00:23:25.700Z,12.57
2023-05-12T00:26:28.446Z,12.54
2023-05-12T00:29:31.032Z,12.55
2023-05-12T00:32:33.775Z,12.51
2023-05-12T00:35:36.395Z,12.52
2023-05-12T00:38:39.122Z,12.41
2023-05-12T00:41:42.177Z,12.27
2023-05-12T00:44:44.569Z,12.22
2023-05-12T00:47:47.032Z,12.36
2023-05-12T00:50:49.598Z,12.36
2023-05-12T00:53:53.193Z,12.26
2023-05-12T00:56:55.888Z,12.14
2023-05-12T00:59:59.112Z,12.25
2023-05-12T01:03:02.294Z,12.22
2023-05-12T01:06:16.878Z,12.18
2023-05-12T01:09:20.886Z,12.00
2023-05-12T01:12:27.792Z,12.05
2023-05-12T01:15:32.349Z,12.14
2023-05-12T01:18:38.291Z,11.97
2023-05-12T01:21:41.711Z,12.00
2023-05-12T01:24:52.771Z,12.07
2023-05-12T01:27:56.006Z,11.94
2023-05-12T01:30:59.612Z,11.88
2023-05-12T01:34:02.157Z,11.92
2023-05-12T01:37:05.745Z,11.87
2023-05-12T01:40:08.666Z,11.70
2023-05-12T01:43:11.053Z,11.77
2023-05-12T01:46:13.664Z,11.73
2023-05-12T01:49:16.820Z,11.83
2023-05-12T01:52:20.852Z,11.55
2023-05-12T01:55:23.181Z,11.71
2023-05-12T01:58:29.138Z,11.62
2023-05-12T02:01:33.611Z,11.69
2023-05-12T02:04:37.904Z,11.59
2023-05-12T02:07:40.168Z,11.54
2023-05-12T02:10:43.306Z,11.43
2023-05-12T02:13:46.568Z,11.56
2023-05-12T02:16:53.007Z,11.56
2023-05-12T02:19:57.365Z,11.53
2023-05-12T02:23:01.326Z,11.48
2023-05-12T02:26:05.833Z,11.63
2023-05-12T02:29:08.270Z,11.51
2023-05-12T02:32:11.684Z,11.55
2023-05-12T02:35:14.139Z,11.46
2023-05-12T02:38:17.466Z,11.45
2023-05-12T02:41:20.753Z,11.37
2023-05-12T02:44:23.555Z,11.38
2023-05-12T02:47:26.460Z,11.35
2023-05-12T02:50:28.969Z,11.46
2023-05-12T02:53:31.530Z,11.50
2023-05-12T02:56:34.098Z,11.40
2023-05-12T02:59:36.989Z,11.42
2023-05-12T03:02:40.260Z,11.37
2023-05-12T03:05:43.688Z,11.32
2023-05-12T03:08:47.060Z,11.32
2023-05-12T03:11:49.469Z,11.39
2023-05-12T03:14:52.245Z,11.35
2023-05-12T03:17:54.989Z,11.19
2023-05-12T03:20:57.921Z,11.14
2023-05-12T03:24:00.695Z,11.10
2023-05-12T03:27:03.371Z,11.09
2023-05-12T03:30:06.360Z,11.12
2023-05-12T03:33:11.649Z,11.33
2023-05-12T03:36:14.439Z,11.42
2023-05-12T03:39:17.243Z,11.47
2023-05-12T03:42:19.845Z,11.42
2023-05-12T03:45:22.736Z,11.40
2023-05-12T03:48:25.743Z,11.36
2023-05-12T03:51:31.442Z,11.22
2023-05-12T03:54:35.142Z,11.27
2023-05-12T03:57:38.730Z,11.18
2023-05-12T04:00:41.548Z,11.35
2023-05-12T04:03:44.048Z,11.51
2023-05-12T04:06:46.572Z,11.49
2023-05-12T04:09:48.908Z,11.50
2023-05-12T04:12:52.497Z,11.46
2023-05-12T04:15:59.073Z,11.54
2023-05-12T04:19:04.742Z,11.49
2023-05-12T04:22:07.532Z,11.42
2023-05-12T04:25:10.523Z,11.48
2023-05-12T04:28:14.150Z,11.64
2023-05-12T04:31:17.265Z,11.59
2023-05-12T04:34:19.922Z,11.66
2023-05-12T04:37:23.078Z,11.71
2023-05-12T04:40:25.790Z,11.66
2023-05-12T04:46:34.345Z,11.77
2023-05-12T04:49:36.939Z,11.93
2023-05-12T04:52:39.770Z,11.91
2023-05-12T04:55:43.236Z,11.89
2023-05-12T04:58:45.972Z,11.99
2023-05-12T05:01:48.657Z,12.03
2023-05-12T05:04:51.256Z,11.96
2023-05-12T05:07:54.123Z,11.96
2023-05-12T05:10:56.587Z,12.01
2023-05-12T05:13:59.184Z,12.07
2023-05-12T05:17:02.432Z,11.98
2023-05-12T05:20:11.389Z,12.10
2023-05-12T05:23:15.047Z,12.19
2023-05-12T05:26:17.615Z,12.02
2023-05-12T05:29:20.515Z,12.14
2023-05-12T05:32:23.046Z,12.24
2023-05-12T05:35:26.759Z,12.38
2023-05-12T05:38:29.676Z,12.45
2023-05-12T05:41:32.036Z,12.45
2023-05-12T05:44:34.617Z,12.61
2023-05-12T05:47:37.721Z,12.69
2023-05-12T05:50:40.798Z,12.45
2023-05-12T05:53:43.324Z,12.57
2023-05-12T05:56:47.073Z,12.57
2023-05-12T05:59:51.493Z,12.37
2023-05-12T06:02:54.139Z,12.26
2023-05-12T06:05:57.386Z,12.32
2023-05-12T06:09:00.619Z,12.23
2023-05-12T06:12:03.000Z,12.37
2023-05-12T06:15:05.827Z,12.45
2023-05-12T06:18:08.230Z,12.43
2023-05-12T06:21:10.549Z,12.41
2023-05-12T06:24:12.909Z,12.35
2023-05-12T06:27:17.482Z,12.34
2023-05-12T06:30:22.377Z,12.41
2023-05-12T06:33:24.721Z,12.46
2023-05-12T06:36:27.523Z,12.34
2023-05-12T06:39:30.380Z,12.45
2023-05-12T06:42:32.686Z,12.46
2023-05-12T06:45:36.716Z,12.36
2023-05-12T06:48:39.019Z,12.49
2023-05-12T06:51:41.435Z,12.26
2023-05-12T06:54:46.840Z,12.46
2023-05-12T06:57:51.821Z,12.23
2023-05-12T07:00:54.513Z,12.27
2023-05-12T07:03:58.058Z,12.46
2023-05-12T07:07:00.404Z,12.46
2023-05-12T07:10:02.654Z,12.47
2023-05-12T07:13:05.113Z,12.37
2023-05-12T07:16:07.504Z,12.36
2023-05-12T07:19:09.989Z,12.18
2023-05-12T07:22:12.324Z,12.21
2023-05-12T07:25:16.019Z,12.00
2023-05-12T07:28:18.658Z,11.93
2023-05-12T07:31:20.984Z,11.62
2023-05-12T07:34:23.251Z,11.86
2023-05-12T07:37:26.293Z,12.00
2023-05-12T07:40:28.538Z,11.89
2023-05-12T07:43:30.948Z,11.68
2023-05-12T07:46:33.459Z,11.66
2023-05-12T07:49:35.787Z,11.67
2023-05-12T07:52:46.747Z,11.59
2023-05-12T07:55:49.062Z,11.56
2023-05-12T07:58:51.420Z,11.71
2023-05-12T08:01:54.060Z,11.74
2023-05-12T08:04:56.591Z,11.82
2023-05-12T08:07:58.975Z,11.73
2023-05-12T08:11:01.618Z,11.75
2023-05-12T08:14:05.003Z,11.87
2023-05-12T08:17:07.763Z,11.92
2023-05-12T08:20:10.898Z,11.70
2023-05-12T08:23:13.248Z,11.68
2023-05-12T08:26:15.546Z,11.64
2023-05-12T08:29:17.837Z,11.58
2023-05-12T08:32:20.279Z,11.27
2023-05-12T08:35:25.013Z,11.52
2023-05-12T08:38:27.548Z,11.64
2023-05-12T08:41:56.147Z,11.58
2023-05-12T08:45:01.039Z,11.62
2023-05-12T08:48:05.906Z,11.58
2023-05-12T08:51:13.188Z,11.61
2023-05-12T08:54:17.566Z,11.66
2023-05-12T08:57:21.875Z,11.88
2023-05-12T09:00:25.919Z,11.92
2023-05-12T09:03:31.328Z,11.60
2023-05-12T09:06:34.376Z,11.57
2023-05-12T09:09:38.513Z,11.62
2023-05-12T09:12:42.860Z,11.65
2023-05-12T09:15:48.929Z,11.92
2023-05-12T09:18:56.391Z,11.72
2023-05-12T09:22:00.396Z,11.40
2023-05-12T09:25:17.308Z,11.61
2023-05-12T09:28:19.655Z,11.39
2023-05-12T09:31:24.243Z,11.37
2023-05-12T09:34:40.995Z,11.47
2023-05-12T09:37:44.313Z,11.51
2023-05-12T09:40:47.241Z,11.43
2023-05-12T09:43:53.322Z,11.23
2023-05-12T09:46:55.750Z,11.52
2023-05-12T09:49:57.993Z,11.57
2023-05-12T09:53:00.377Z,11.61
2023-05-12T09:56:02.626Z,11.67
2023-05-12T09:59:05.538Z,11.70
2023-05-12T10:02:09.749Z,11.94
2023-05-12T10:05:17.099Z,11.77
2023-05-12T10:08:34.515Z,11.71
2023-05-12T10:11:37.109Z,11.41
2023-05-12T10:14:43.790Z,11.65
2023-05-12T10:17:46.959Z,11.74
2023-05-12T10:20:51.369Z,11.82
2023-05-12T10:23:54.571Z,12.01
2023-05-12T10:26:59.575Z,11.99
2023-05-12T10:30:04.524Z,12.01
2023-05-12T10:33:11.654Z,12.07
2023-05-12T10:36:22.867Z,12.30
2023-05-12T10:39:29.830Z,12.16
2023-05-12T10:42:43.430Z,12.53
2023-05-12T10:45:47.284Z,12.46
2023-05-12T10:49:03.043Z,12.43
2023-05-12T10:52:06.325Z,12.20
2023-05-12T10:55:14.188Z,12.10
2023-05-12T10:58:18.055Z,12.18
2023-05-12T11:01:26.407Z,12.24
2023-05-12T11:04:37.369Z,12.12
2023-05-12T11:07:40.177Z,12.19
2023-05-12T11:10:43.322Z,12.10
2023-05-12T11:13:46.128Z,12.01
2023-05-12T11:16:48.496Z,12.02
2023-05-12T11:19:52.616Z,12.00
2023-05-12T11:22:55.126Z,11.87
2023-05-12T11:25:57.724Z,11.84
2023-05-12T11:29:00.186Z,11.81
2023-05-12T11:32:02.759Z,11.63
2023-05-12T11:35:13.639Z,11.59
2023-05-12T11:38:19.627Z,11.68
2023-05-12T11:41:26.475Z,11.62
2023-05-12T11:44:29.294Z,11.78
2023-05-12T11:47:31.608Z,11.82
2023-05-12T11:50:34.039Z,11.72
2023-05-12T11:53:40.635Z,12.02
2023-05-12T11:56:51.039Z,12.12
2023-05-12T11:59:58.776Z,12.09
2023-05-12T12:03:11.990Z,12.19
2023-05-12T12:06:15.455Z,12.14
2023-05-12T12:09:17.810Z,11.93
2023-05-12T12:12:20.725Z,11.93
2023-05-12T12:15:23.210Z,11.80
2023-05-12T12:18:25.657Z,11.99
2023-05-12T12:21:28.523Z,11.94
2023-05-12T12:24:31.097Z,11.60
2023-05-12T12:27:33.437Z,11.59
2023-05-12T12:30:35.775Z,11.71
2023-05-12T12:33:38.107Z,11.77
2023-05-12T12:36:41.253Z,11.87
2023-05-12T12:39:43.576Z,11.85
2023-05-12T12:42:46.825Z,11.76
2023-05-12T12:45:49.316Z,11.80
2023-05-12T12:48:51.650Z,11.65
2023-05-12T12:51:53.918Z,11.49
2023-05-12T12:54:57.504Z,11.60
2023-05-12T12:57:59.783Z,11.66
2023-05-12T13:01:02.384Z,11.40
2023-05-12T13:04:05.115Z,11.38
2023-05-12T13:07:07.419Z,11.45
2023-05-12T13:10:10.561Z,11.37
2023-05-12T13:13:13.073Z,11.19
2023-05-12T13:16:15.787Z,11.22
2023-05-12T13:19:18.093Z,11.41
2023-05-12T13:22:20.789Z,11.51
2023-05-12T13:25:23.412Z,11.38
2023-05-12T13:28:25.830Z,11.52
2023-05-12T13:31:28.240Z,11.47
2023-05-12T13:34:30.577Z,11.53
2023-05-12T13:37:33.055Z,11.62
2023-05-12T13:40:35.548Z,11.76
2023-05-12T13:43:37.978Z,11.71
2023-05-12T13:46:40.727Z,11.79
2023-05-12T13:49:43.048Z,11.81
2023-05-12T13:52:45.457Z,11.67
2023-05-12T13:55:48.605Z,11.71
2023-05-12T13:58:50.909Z,11.71
2023-05-12T14:01:53.335Z,11.62
2023-05-12T14:04:56.618Z,11.36
2023-05-12T14:07:58.916Z,11.38
2023-05-12T14:11:01.242Z,11.55
2023-05-12T14:14:04.390Z,11.46
2023-05-12T14:17:06.692Z,11.66
2023-05-12T14:20:09.479Z,11.65
2023-05-12T14:23:11.827Z,11.53
2023-05-12T14:26:14.284Z,11.55
2023-05-12T14:29:16.568Z,11.62
2023-05-12T14:32:18.905Z,11.71
2023-05-12T14:35:22.030Z,11.68
2023-05-12T14:38:25.213Z,11.50
2023-05-12T14:41:27.635Z,11.43
2023-05-12T14:44:30.095Z,11.51
2023-05-12T14:47:32.529Z,11.37
2023-05-12T14:50:34.918Z,11.40
2023-05-12T14:53:37.341Z,11.51
2023-05-12T14:56:41.800Z,11.54
2023-05-12T14:59:44.404Z,11.50
2023-05-12T15:02:46.976Z,11.40
2023-05-12T15:06:05.050Z,11.46
2023-05-12T15:09:09.452Z,11.58
2023-05-12T15:12:11.856Z,11.68
2023-05-12T15:15:14.207Z,11.62
2023-05-12T15:18:16.677Z,11.58
2023-05-12T15:21:19.013Z,11.58
2023-05-12T15:24:21.785Z,11.60
2023-05-12T15:27:24.671Z,11.47
2023-05-12T15:30:27.235Z,11.52
2023-05-12T15:33:31.585Z,11.46
2023-05-12T15:36:34.563Z,11.37
2023-05-12T15:39:37.087Z,11.53
2023-05-12T15:42:40.029Z,11.50
2023-05-12T15:45:42.305Z,11.45
2023-05-12T15:48:44.585Z,11.44
2023-05-12T15:51:47.118Z,11.46
2023-05-12T15:54:49.606Z,11.51
2023-05-12T15:57:53.739Z,11.58
2023-05-12T16:00:56.532Z,11.50
2023-05-12T16:03:59.480Z,11.60
2023-05-12T16:07:01.983Z,11.65
2023-05-12T16:10:05.313Z,11.64
2023-05-12T16:13:07.754Z,11.60
2023-05-12T16:16:10.342Z,11.58
2023-05-12T16:19:12.889Z,11.72
2023-05-12T16:22:15.327Z,11.66
2023-05-12T16:25:18.759Z,11.66
2023-05-12T16:28:21.382Z,11.68
2023-05-12T16:31:23.739Z,11.72
2023-05-12T16:34:26.044Z,11.61
2023-05-12T16:37:28.448Z,11.67
2023-05-12T16:40:30.867Z,11.55
2023-05-12T16:43:33.498Z,11.72
2023-05-12T16:46:36.150Z,11.58
2023-05-12T16:49:38.706Z,11.58
2023-05-12T16:52:41.287Z,11.62
2023-05-12T16:55:43.906Z,11.44
2023-05-12T16:58:46.584Z,11.37
2023-05-12T17:01:48.897Z,11.27
2023-05-12T17:04:51.430Z,11.30
2023-05-12T17:07:53.811Z,11.29
2023-05-12T17:10:56.283Z,11.32
2023-05-12T17:13:58.588Z,11.25
2023-05-12T17:17:01.265Z,11.25
2023-05-12T17:20:04.166Z,11.24
2023-05-12T17:23:06.954Z,11.22
2023-05-12T17:26:09.433Z,11.13
2023-05-12T17:29:12.373Z,11.26
2023-05-12T17:32:14.764Z,11.24
2023-05-12T17:35:17.465Z,11.29
2023-05-12T17:38:20.822Z,11.27
2023-05-12T17:41:23.704Z,11.25
2023-05-12T17:44:26.049Z,11.26
2023-05-12T17:47:28.488Z,11.20
2023-05-12T17:50:30.843Z,11.15
2023-05-12T17:53:33.475Z,11.11
2023-05-12T17:56:35.874Z,11.12
2023-05-12T17:59:38.169Z,11.07
2023-05-12T18:02:41.480Z,11.04
2023-05-12T18:05:44.366Z,11.06
2023-05-12T18:08:46.761Z,11.04
2023-05-12T18:11:50.328Z,10.90
2023-05-12T18:14:53.444Z,10.87
2023-05-12T18:17:57.886Z,10.90
2023-05-12T18:21:01.185Z,10.91
2023-05-12T18:24:03.724Z,10.91
2023-05-12T18:27:06.568Z,10.89
2023-05-12T18:30:09.601Z,10.77
2023-05-12T18:33:12.182Z,10.69
2023-05-12T18:36:15.427Z,10.60
2023-05-12T18:39:18.374Z,10.67
2023-05-12T18:42:20.784Z,10.65
2023-05-12T18:45:23.453Z,10.64
2023-05-12T18:48:25.837Z,10.66
2023-05-12T18:51:28.312Z,10.67
2023-05-12T18:54:30.558Z,10.64
2023-05-12T18:57:33.012Z,10.67
2023-05-12T19:00:35.822Z,10.65
2023-05-12T19:03:38.376Z,10.62
2023-05-12T19:06:43.222Z,10.63
2023-05-12T19:09:48.835Z,10.57
2023-05-12T19:12:51.585Z,10.48
2023-05-12T19:15:53.908Z,10.38
2023-05-12T19:18:56.301Z,10.54
2023-05-12T19:21:58.643Z,10.53
2023-05-12T19:25:02.127Z,10.52
2023-05-12T19:28:04.814Z,10.55
2023-05-12T19:31:07.252Z,10.41
2023-05-12T19:34:09.568Z,10.46
2023-05-12T19:37:11.950Z,10.49
2023-05-12T19:40:14.822Z,10.52
2023-05-12T19:43:17.115Z,10.47
2023-05-12T19:46:19.652Z,10.52
2023-05-12T19:49:22.193Z,10.59
2023-05-12T19:52:25.000Z,10.61
2023-05-12T19:55:27.280Z,10.52
2023-05-12T19:58:29.815Z,10.53
2023-05-12T20:01:32.165Z,10.56
2023-05-12T20:04:34.625Z,10.49
2023-05-12T20:07:36.976Z,10.59
2023-05-12T20:10:39.289Z,10.56
2023-05-12T20:13:41.576Z,10.56
2023-05-12T20:16:44.096Z,10.57
2023-05-12T20:19:46.700Z,10.56
2023-05-12T20:22:49.059Z,10.47
2023-05-12T20:25:52.888Z,10.51
2023-05-12T20:28:55.408Z,10.53
2023-05-12T20:31:57.820Z,10.60
2023-05-12T20:35:00.325Z,10.58
2023-05-12T20:38:03.056Z,10.55
2023-05-12T20:41:06.333Z,10.58
2023-05-12T20:44:09.147Z,10.59
2023-05-12T20:47:13.016Z,10.57
2023-05-12T20:50:15.827Z,10.61
2023-05-12T20:53:18.345Z,10.56
2023-05-12T20:56:23.993Z,10.59
2023-05-12T20:59:26.708Z,10.55
2023-05-12T21:02:29.571Z,10.58
2023-05-12T21:05:32.450Z,10.59
2023-05-12T21:08:34.952Z,10.55
2023-05-12T21:11:37.265Z,10.62
2023-05-12T21:14:41.319Z,10.63
2023-05-12T21:17:43.640Z,10.64
2023-05-12T21:20:47.324Z,10.68
2023-05-12T21:23:49.627Z,10.60
2023-05-12T21:26:52.238Z,10.66
2023-05-12T21:29:54.743Z,10.52
2023-05-12T21:32:57.157Z,10.53
2023-05-12T21:35:59.762Z,10.45
2023-05-12T21:39:02.255Z,10.51
2023-05-12T21:42:04.813Z,10.45
2023-05-12T21:45:07.617Z,10.46
2023-05-12T21:48:09.952Z,10.52
2023-05-12T21:51:12.659Z,10.52
2023-05-12T21:54:15.354Z,10.57
2023-05-12T21:57:17.741Z,10.52
2023-05-12T22:00:20.544Z,10.59
2023-05-12T22:03:25.141Z,10.59
2023-05-12T22:06:27.583Z,10.56
2023-05-12T22:09:31.307Z,10.54
2023-05-12T22:12:33.718Z,10.47
2023-05-12T22:15:36.033Z,10.42
2023-05-12T22:18:38.564Z,10.45
2023-05-12T22:21:41.034Z,10.36
2023-05-12T22:24:43.852Z,10.33
2023-05-12T22:27:46.255Z,10.36
2023-05-12T22:30:48.705Z,10.46
2023-05-12T22:33:51.086Z,10.43
2023-05-12T22:36:53.623Z,10.41
2023-05-12T22:39:56.154Z,10.48
2023-05-12T22:42:58.420Z,10.51
2023-05-12T22:46:00.665Z,10.44
2023-05-12T22:49:03.277Z,10.59
2023-05-12T22:52:06.079Z,10.41
2023-05-12T22:55:08.885Z,10.45
2023-05-12T22:58:11.939Z,10.45
2023-05-12T23:01:14.239Z,10.46
2023-05-12T23:04:16.667Z,10.49
2023-05-12T23:07:18.926Z,10.48
2023-05-12T23:10:21.455Z,10.50
2023-05-12T23:13:23.892Z,10.41
2023-05-12T23:16:26.757Z,10.42
2023-05-12T23:19:29.086Z,10.31
2023-05-12T23:22:31.409Z,10.32
2023-05-12T23:25:35.195Z,10.26
2023-05-12T23:28:37.536Z,10.27
2023-05-12T23:31:39.843Z,10.25
2023-05-12T23:34:42.866Z,10.27
2023-05-12T23:37:45.143Z,10.33
2023-05-12T23:40:47.603Z,10.32
2023-05-12T23:43:49.939Z,10.23
2023-05-12T23:46:52.265Z,10.29
2023-05-12T23:49:54.672Z,10.34
2023-05-12T23:52:56.907Z,10.20
2023-05-12T23:55:59.145Z,10.21
2023-05-12T23:59:01.507Z,10.27
